sensor_id;sensor_type;location;lat;lon;timestamp;P1;durP1;ratioP1;P2;durP2;ratioP2
11066;SDS011;29763;50.904;5.530;2023-04-25T00:00:34;13.70;;;5.57;;
11066;SDS011;29763;50.904;5.530;2023-04-25T00:03:02;11.03;;;5.37;;
11066;SDS011;29763;50.904;5.530;2023-04-25T00:05:34;10.57;;;4.80;;
11066;SDS011;29763;50.904;5.530;2023-04-25T00:08:03;12.50;;;5.30;;
11066;SDS011;29763;50.904;5.530;2023-04-25T00:10:52;11.83;;;5.33;;
11066;SDS011;29763;50.904;5.530;2023-04-25T00:13:18;14.70;;;5.60;;
11066;SDS011;29763;50.904;5.530;2023-04-25T00:15:49;12.55;;;5.63;;
11066;SDS011;29763;50.904;5.530;2023-04-25T00:18:21;15.40;;;5.90;;
11066;SDS011;29763;50.904;5.530;2023-04-25T00:21:00;11.15;;;5.78;;
11066;SDS011;29763;50.904;5.530;2023-04-25T00:23:35;11.02;;;5.93;;
11066;SDS011;29763;50.904;5.530;2023-04-25T00:26:08;11.67;;;5.73;;
11066;SDS011;29763;50.904;5.530;2023-04-25T00:28:55;14.37;;;6.00;;
11066;SDS011;29763;50.904;5.530;2023-04-25T00:31:24;12.10;;;5.77;;
11066;SDS011;29763;50.904;5.530;2023-04-25T00:33:58;13.20;;;6.50;;
11066;SDS011;29763;50.904;5.530;2023-04-25T00:36:28;13.82;;;5.68;;
11066;SDS011;29763;50.904;5.530;2023-04-25T00:38:56;10.63;;;5.53;;
11066;SDS011;29763;50.904;5.530;2023-04-25T00:41:26;11.57;;;5.57;;
11066;SDS011;29763;50.904;5.530;2023-04-25T00:44:10;16.80;;;5.30;;
11066;SDS011;29763;50.904;5.530;2023-04-25T00:46:43;11.82;;;4.82;;
11066;SDS011;29763;50.904;5.530;2023-04-25T00:49:16;10.50;;;5.10;;
11066;SDS011;29763;50.904;5.530;2023-04-25T00:51:43;13.33;;;5.27;;
11066;SDS011;29763;50.904;5.530;2023-04-25T00:54:16;11.33;;;4.97;;
11066;SDS011;29763;50.904;5.530;2023-04-25T00:56:46;14.38;;;6.10;;
11066;SDS011;29763;50.904;5.530;2023-04-25T00:59:14;10.02;;;5.65;;
11066;SDS011;29763;50.904;5.530;2023-04-25T01:01:48;10.20;;;4.57;;
11066;SDS011;29763;50.904;5.530;2023-04-25T01:04:16;16.20;;;5.13;;
11066;SDS011;29763;50.904;5.530;2023-04-25T01:06:45;10.40;;;4.90;;
11066;SDS011;29763;50.904;5.530;2023-04-25T01:09:19;11.03;;;4.73;;
11066;SDS011;29763;50.904;5.530;2023-04-25T01:11:47;12.25;;;5.15;;
11066;SDS011;29763;50.904;5.530;2023-04-25T01:14:20;14.45;;;5.18;;
11066;SDS011;29763;50.904;5.530;2023-04-25T01:16:52;11.70;;;4.97;;
11066;SDS011;29763;50.904;5.530;2023-04-25T01:19:26;9.07;;;4.95;;
11066;SDS011;29763;50.904;5.530;2023-04-25T01:22:04;9.07;;;4.60;;
11066;SDS011;29763;50.904;5.530;2023-04-25T01:24:33;12.00;;;5.10;;
11066;SDS011;29763;50.904;5.530;2023-04-25T01:27:02;11.60;;;5.03;;
11066;SDS011;29763;50.904;5.530;2023-04-25T01:29:28;9.10;;;4.32;;
11066;SDS011;29763;50.904;5.530;2023-04-25T01:31:55;11.88;;;4.93;;
11066;SDS011;29763;50.904;5.530;2023-04-25T01:34:30;14.43;;;5.37;;
11066;SDS011;29763;50.904;5.530;2023-04-25T01:36:58;13.07;;;4.35;;
11066;SDS011;29763;50.904;5.530;2023-04-25T01:39:31;11.17;;;4.90;;
11066;SDS011;29763;50.904;5.530;2023-04-25T01:41:57;12.70;;;5.07;;
11066;SDS011;29763;50.904;5.530;2023-04-25T01:44:32;13.57;;;5.47;;
11066;SDS011;29763;50.904;5.530;2023-04-25T01:46:58;11.27;;;4.72;;
11066;SDS011;29763;50.904;5.530;2023-04-25T01:49:33;12.27;;;4.80;;
11066;SDS011;29763;50.904;5.530;2023-04-25T01:52:02;14.70;;;5.20;;
11066;SDS011;29763;50.904;5.530;2023-04-25T01:54:31;13.37;;;5.37;;
11066;SDS011;29763;50.904;5.530;2023-04-25T01:56:58;13.47;;;5.27;;
11066;SDS011;29763;50.904;5.530;2023-04-25T01:59:26;12.97;;;5.30;;
11066;SDS011;29763;50.904;5.530;2023-04-25T02:01:56;14.65;;;4.97;;
11066;SDS011;29763;50.904;5.530;2023-04-25T02:04:25;13.00;;;5.50;;
11066;SDS011;29763;50.904;5.530;2023-04-25T02:06:54;12.45;;;4.88;;
11066;SDS011;29763;50.904;5.530;2023-04-25T02:09:21;16.65;;;6.28;;
11066;SDS011;29763;50.904;5.530;2023-04-25T02:11:58;13.43;;;5.13;;
11066;SDS011;29763;50.904;5.530;2023-04-25T02:14:27;14.40;;;6.20;;
11066;SDS011;29763;50.904;5.530;2023-04-25T02:16:54;10.83;;;5.80;;
11066;SDS011;29763;50.904;5.530;2023-04-25T02:19:28;12.52;;;5.00;;
11066;SDS011;29763;50.904;5.530;2023-04-25T02:22:02;17.58;;;5.53;;
11066;SDS011;29763;50.904;5.530;2023-04-25T02:24:31;14.93;;;5.30;;
11066;SDS011;29763;50.904;5.530;2023-04-25T02:26:59;13.48;;;4.95;;
11066;SDS011;29763;50.904;5.530;2023-04-25T02:39:00;14.90;;;5.67;;
11066;SDS011;29763;50.904;5.530;2023-04-25T02:41:26;12.17;;;4.90;;
11066;SDS011;29763;50.904;5.530;2023-04-25T02:43:52;16.15;;;5.78;;
11066;SDS011;29763;50.904;5.530;2023-04-25T02:46:18;12.67;;;5.90;;
11066;SDS011;29763;50.904;5.530;2023-04-25T02:48:43;16.13;;;5.55;;
11066;SDS011;29763;50.904;5.530;2023-04-25T02:51:09;13.70;;;5.20;;
11066;SDS011;29763;50.904;5.530;2023-04-25T02:53:35;13.27;;;5.57;;
11066;SDS011;29763;50.904;5.530;2023-04-25T02:56:01;14.20;;;5.70;;
11066;SDS011;29763;50.904;5.530;2023-04-25T02:58:27;12.63;;;5.30;;
11066;SDS011;29763;50.904;5.530;2023-04-25T03:00:53;11.23;;;5.45;;
11066;SDS011;29763;50.904;5.530;2023-04-25T03:03:19;10.38;;;5.25;;
11066;SDS011;29763;50.904;5.530;2023-04-25T03:05:51;10.27;;;5.03;;
11066;SDS011;29763;50.904;5.530;2023-04-25T03:08:17;14.25;;;5.35;;
11066;SDS011;29763;50.904;5.530;2023-04-25T03:10:44;13.70;;;5.50;;
11066;SDS011;29763;50.904;5.530;2023-04-25T03:13:10;16.00;;;5.40;;
11066;SDS011;29763;50.904;5.530;2023-04-25T03:15:35;12.60;;;5.53;;
11066;SDS011;29763;50.904;5.530;2023-04-25T03:18:02;13.70;;;5.70;;
11066;SDS011;29763;50.904;5.530;2023-04-25T03:20:27;13.23;;;5.32;;
11066;SDS011;29763;50.904;5.530;2023-04-25T03:22:53;13.68;;;5.30;;
11066;SDS011;29763;50.904;5.530;2023-04-25T03:25:19;12.20;;;5.07;;
11066;SDS011;29763;50.904;5.530;2023-04-25T03:27:45;13.07;;;5.10;;
11066;SDS011;29763;50.904;5.530;2023-04-25T03:30:11;13.93;;;5.13;;
11066;SDS011;29763;50.904;5.530;2023-04-25T03:32:37;14.10;;;5.40;;
11066;SDS011;29763;50.904;5.530;2023-04-25T03:35:03;10.07;;;5.25;;
11066;SDS011;29763;50.904;5.530;2023-04-25T03:37:30;13.35;;;4.65;;
11066;SDS011;29763;50.904;5.530;2023-04-25T03:39:56;10.90;;;5.20;;
11066;SDS011;29763;50.904;5.530;2023-04-25T03:42:21;14.20;;;5.63;;
11066;SDS011;29763;50.904;5.530;2023-04-25T03:44:48;11.82;;;5.38;;
11066;SDS011;29763;50.904;5.530;2023-04-25T03:47:14;15.10;;;6.07;;
11066;SDS011;29763;50.904;5.530;2023-04-25T03:49:41;14.52;;;5.85;;
11066;SDS011;29763;50.904;5.530;2023-04-25T03:52:07;21.03;;;5.77;;
11066;SDS011;29763;50.904;5.530;2023-04-25T03:54:33;16.70;;;6.30;;
11066;SDS011;29763;50.904;5.530;2023-04-25T03:56:58;15.90;;;5.70;;
11066;SDS011;29763;50.904;5.530;2023-04-25T03:59:24;13.93;;;5.70;;
11066;SDS011;29763;50.904;5.530;2023-04-25T04:01:51;14.27;;;5.83;;
11066;SDS011;29763;50.904;5.530;2023-04-25T04:04:17;12.70;;;5.80;;
11066;SDS011;29763;50.904;5.530;2023-04-25T04:06:43;12.70;;;5.90;;
11066;SDS011;29763;50.904;5.530;2023-04-25T04:09:09;15.52;;;6.05;;
11066;SDS011;29763;50.904;5.530;2023-04-25T04:11:36;13.55;;;6.90;;
11066;SDS011;29763;50.904;5.530;2023-04-25T04:14:04;16.27;;;6.73;;
11066;SDS011;29763;50.904;5.530;2023-04-25T04:16:31;13.15;;;6.35;;
11066;SDS011;29763;50.904;5.530;2023-04-25T04:18:56;14.70;;;6.90;;
11066;SDS011;29763;50.904;5.530;2023-04-25T04:21:22;18.20;;;7.10;;
11066;SDS011;29763;50.904;5.530;2023-04-25T04:23:48;14.53;;;6.20;;
11066;SDS011;29763;50.904;5.530;2023-04-25T04:26:14;16.40;;;6.63;;
11066;SDS011;29763;50.904;5.530;2023-04-25T04:28:43;13.77;;;5.97;;
11066;SDS011;29763;50.904;5.530;2023-04-25T04:31:09;15.40;;;6.33;;
11066;SDS011;29763;50.904;5.530;2023-04-25T04:33:35;15.70;;;6.40;;
11066;SDS011;29763;50.904;5.530;2023-04-25T04:36:02;18.50;;;7.17;;
11066;SDS011;29763;50.904;5.530;2023-04-25T04:38:28;15.40;;;6.90;;
11066;SDS011;29763;50.904;5.530;2023-04-25T04:40:55;14.55;;;6.43;;
11066;SDS011;29763;50.904;5.530;2023-04-25T04:43:21;13.90;;;5.90;;
11066;SDS011;29763;50.904;5.530;2023-04-25T04:45:48;19.17;;;6.67;;
11066;SDS011;29763;50.904;5.530;2023-04-25T04:48:15;17.38;;;5.75;;
11066;SDS011;29763;50.904;5.530;2023-04-25T04:50:42;20.17;;;6.57;;
11066;SDS011;29763;50.904;5.530;2023-04-25T04:53:10;19.53;;;6.50;;
11066;SDS011;29763;50.904;5.530;2023-04-25T04:55:35;18.03;;;6.57;;
11066;SDS011;29763;50.904;5.530;2023-04-25T04:58:01;15.23;;;6.57;;
11066;SDS011;29763;50.904;5.530;2023-04-25T05:00:27;20.80;;;6.13;;
11066;SDS011;29763;50.904;5.530;2023-04-25T05:02:54;19.10;;;7.10;;
11066;SDS011;29763;50.904;5.530;2023-04-25T05:05:20;19.17;;;7.07;;
11066;SDS011;29763;50.904;5.530;2023-04-25T05:07:46;14.23;;;6.57;;
11066;SDS011;29763;50.904;5.530;2023-04-25T05:10:12;16.38;;;6.65;;
11066;SDS011;29763;50.904;5.530;2023-04-25T05:12:37;15.90;;;6.87;;
11066;SDS011;29763;50.904;5.530;2023-04-25T05:15:03;19.40;;;7.27;;
11066;SDS011;29763;50.904;5.530;2023-04-25T05:17:29;19.83;;;7.13;;
11066;SDS011;29763;50.904;5.530;2023-04-25T05:19:55;20.27;;;7.03;;
11066;SDS011;29763;50.904;5.530;2023-04-25T05:22:22;18.33;;;6.47;;
11066;SDS011;29763;50.904;5.530;2023-04-25T05:24:48;14.30;;;6.60;;
11066;SDS011;29763;50.904;5.530;2023-04-25T05:27:15;16.27;;;6.60;;
11066;SDS011;29763;50.904;5.530;2023-04-25T05:29:41;18.45;;;6.93;;
11066;SDS011;29763;50.904;5.530;2023-04-25T05:32:07;16.97;;;6.40;;
11066;SDS011;29763;50.904;5.530;2023-04-25T05:34:34;15.97;;;6.70;;
11066;SDS011;29763;50.904;5.530;2023-04-25T05:37:00;19.00;;;6.47;;
11066;SDS011;29763;50.904;5.530;2023-04-25T05:39:26;16.25;;;6.70;;
11066;SDS011;29763;50.904;5.530;2023-04-25T05:41:52;17.33;;;6.53;;
11066;SDS011;29763;50.904;5.530;2023-04-25T05:44:18;16.20;;;6.80;;
11066;SDS011;29763;50.904;5.530;2023-04-25T05:46:44;20.55;;;8.02;;
11066;SDS011;29763;50.904;5.530;2023-04-25T05:49:09;18.65;;;6.35;;
11066;SDS011;29763;50.904;5.530;2023-04-25T05:51:35;17.17;;;6.43;;
11066;SDS011;29763;50.904;5.530;2023-04-25T05:54:01;20.55;;;6.72;;
11066;SDS011;29763;50.904;5.530;2023-04-25T05:56:27;19.30;;;7.13;;
11066;SDS011;29763;50.904;5.530;2023-04-25T05:58:52;20.05;;;6.15;;
11066;SDS011;29763;50.904;5.530;2023-04-25T06:01:18;14.13;;;5.70;;
11066;SDS011;29763;50.904;5.530;2023-04-25T06:03:44;19.02;;;6.00;;
11066;SDS011;29763;50.904;5.530;2023-04-25T06:06:11;15.57;;;6.25;;
11066;SDS011;29763;50.904;5.530;2023-04-25T06:08:37;18.95;;;6.13;;
11066;SDS011;29763;50.904;5.530;2023-04-25T06:11:03;16.33;;;6.30;;
11066;SDS011;29763;50.904;5.530;2023-04-25T06:13:29;18.77;;;6.32;;
11066;SDS011;29763;50.904;5.530;2023-04-25T06:15:55;15.30;;;6.13;;
11066;SDS011;29763;50.904;5.530;2023-04-25T06:18:21;14.85;;;5.90;;
11066;SDS011;29763;50.904;5.530;2023-04-25T06:20:46;18.65;;;5.93;;
11066;SDS011;29763;50.904;5.530;2023-04-25T06:23:12;17.02;;;6.22;;
11066;SDS011;29763;50.904;5.530;2023-04-25T06:25:38;14.73;;;5.57;;
11066;SDS011;29763;50.904;5.530;2023-04-25T06:28:03;12.15;;;5.90;;
11066;SDS011;29763;50.904;5.530;2023-04-25T06:30:29;17.60;;;5.68;;
11066;SDS011;29763;50.904;5.530;2023-04-25T06:32:55;16.55;;;6.90;;
11066;SDS011;29763;50.904;5.530;2023-04-25T06:35:21;22.23;;;7.93;;
11066;SDS011;29763;50.904;5.530;2023-04-25T06:37:47;18.80;;;7.10;;
11066;SDS011;29763;50.904;5.530;2023-04-25T06:40:12;14.57;;;6.90;;
11066;SDS011;29763;50.904;5.530;2023-04-25T06:42:38;18.83;;;6.63;;
11066;SDS011;29763;50.904;5.530;2023-04-25T06:45:04;17.60;;;6.97;;
11066;SDS011;29763;50.904;5.530;2023-04-25T06:47:30;15.32;;;7.00;;
11066;SDS011;29763;50.904;5.530;2023-04-25T06:49:56;14.20;;;5.90;;
11066;SDS011;29763;50.904;5.530;2023-04-25T06:52:21;11.65;;;5.25;;
11066;SDS011;29763;50.904;5.530;2023-04-25T06:54:47;12.07;;;4.43;;
11066;SDS011;29763;50.904;5.530;2023-04-25T06:57:13;16.17;;;4.97;;
11066;SDS011;29763;50.904;5.530;2023-04-25T06:59:40;11.32;;;4.05;;
11066;SDS011;29763;50.904;5.530;2023-04-25T07:02:06;11.45;;;4.18;;
11066;SDS011;29763;50.904;5.530;2023-04-25T07:04:31;9.80;;;3.95;;
11066;SDS011;29763;50.904;5.530;2023-04-25T07:06:57;16.15;;;5.60;;
11066;SDS011;29763;50.904;5.530;2023-04-25T07:09:23;16.20;;;5.13;;
11066;SDS011;29763;50.904;5.530;2023-04-25T07:11:49;14.43;;;5.20;;
11066;SDS011;29763;50.904;5.530;2023-04-25T07:14:14;13.88;;;5.00;;
11066;SDS011;29763;50.904;5.530;2023-04-25T07:16:40;12.73;;;4.38;;
11066;SDS011;29763;50.904;5.530;2023-04-25T07:19:06;12.85;;;4.53;;
11066;SDS011;29763;50.904;5.530;2023-04-25T07:21:32;16.15;;;4.90;;
11066;SDS011;29763;50.904;5.530;2023-04-25T07:23:58;12.50;;;4.50;;
11066;SDS011;29763;50.904;5.530;2023-04-25T07:26:24;10.27;;;5.00;;
11066;SDS011;29763;50.904;5.530;2023-04-25T07:28:49;12.48;;;4.75;;
11066;SDS011;29763;50.904;5.530;2023-04-25T07:31:19;14.93;;;4.60;;
11066;SDS011;29763;50.904;5.530;2023-04-25T07:33:45;14.45;;;5.05;;
11066;SDS011;29763;50.904;5.530;2023-04-25T07:36:10;15.98;;;5.10;;
11066;SDS011;29763;50.904;5.530;2023-04-25T07:38:37;11.77;;;4.55;;
11066;SDS011;29763;50.904;5.530;2023-04-25T07:41:04;12.00;;;4.15;;
11066;SDS011;29763;50.904;5.530;2023-04-25T07:43:30;11.80;;;4.43;;
11066;SDS011;29763;50.904;5.530;2023-04-25T07:45:55;11.73;;;4.57;;
11066;SDS011;29763;50.904;5.530;2023-04-25T07:48:21;11.73;;;3.80;;
11066;SDS011;29763;50.904;5.530;2023-04-25T07:50:47;12.68;;;3.83;;
11066;SDS011;29763;50.904;5.530;2023-04-25T07:53:13;9.35;;;4.22;;
11066;SDS011;29763;50.904;5.530;2023-04-25T07:55:39;12.80;;;4.00;;
11066;SDS011;29763;50.904;5.530;2023-04-25T07:58:05;10.90;;;3.45;;
11066;SDS011;29763;50.904;5.530;2023-04-25T08:00:35;10.63;;;4.05;;
11066;SDS011;29763;50.904;5.530;2023-04-25T08:03:01;9.80;;;3.47;;
11066;SDS011;29763;50.904;5.530;2023-04-25T08:05:27;8.60;;;3.00;;
11066;SDS011;29763;50.904;5.530;2023-04-25T08:07:53;12.65;;;3.70;;
11066;SDS011;29763;50.904;5.530;2023-04-25T08:10:19;8.52;;;3.35;;
11066;SDS011;29763;50.904;5.530;2023-04-25T08:12:45;10.73;;;3.85;;
11066;SDS011;29763;50.904;5.530;2023-04-25T08:15:11;8.57;;;3.30;;
11066;SDS011;29763;50.904;5.530;2023-04-25T08:17:38;13.85;;;4.18;;
11066;SDS011;29763;50.904;5.530;2023-04-25T08:20:05;13.88;;;3.97;;
11066;SDS011;29763;50.904;5.530;2023-04-25T08:22:31;7.57;;;3.22;;
11066;SDS011;29763;50.904;5.530;2023-04-25T08:24:57;11.27;;;3.40;;
11066;SDS011;29763;50.904;5.530;2023-04-25T08:27:23;7.22;;;2.90;;
11066;SDS011;29763;50.904;5.530;2023-04-25T08:29:49;9.93;;;3.35;;
11066;SDS011;29763;50.904;5.530;2023-04-25T08:32:16;9.07;;;2.97;;
11066;SDS011;29763;50.904;5.530;2023-04-25T08:34:41;11.02;;;2.92;;
11066;SDS011;29763;50.904;5.530;2023-04-25T08:37:09;10.07;;;3.20;;
11066;SDS011;29763;50.904;5.530;2023-04-25T08:39:40;9.57;;;2.95;;
11066;SDS011;29763;50.904;5.530;2023-04-25T08:42:07;10.90;;;3.08;;
11066;SDS011;29763;50.904;5.530;2023-04-25T08:44:33;8.50;;;2.83;;
11066;SDS011;29763;50.904;5.530;2023-04-25T08:47:01;6.90;;;2.53;;
11066;SDS011;29763;50.904;5.530;2023-04-25T08:49:29;12.80;;;2.90;;
11066;SDS011;29763;50.904;5.530;2023-04-25T08:52:00;10.40;;;3.00;;
11066;SDS011;29763;50.904;5.530;2023-04-25T08:54:28;9.77;;;2.83;;
11066;SDS011;29763;50.904;5.530;2023-04-25T08:56:56;7.95;;;2.75;;
11066;SDS011;29763;50.904;5.530;2023-04-25T08:59:26;7.50;;;2.72;;
11066;SDS011;29763;50.904;5.530;2023-04-25T09:01:53;8.60;;;2.35;;
11066;SDS011;29763;50.904;5.530;2023-04-25T09:04:19;8.02;;;2.60;;
11066;SDS011;29763;50.904;5.530;2023-04-25T09:06:46;8.35;;;2.75;;
11066;SDS011;29763;50.904;5.530;2023-04-25T09:09:13;4.72;;;2.50;;
11066;SDS011;29763;50.904;5.530;2023-04-25T09:11:39;7.82;;;2.80;;
11066;SDS011;29763;50.904;5.530;2023-04-25T09:19:23;11.10;;;3.47;;
11066;SDS011;29763;50.904;5.530;2023-04-25T09:21:51;11.95;;;3.28;;
11066;SDS011;29763;50.904;5.530;2023-04-25T09:24:32;7.82;;;3.28;;
11066;SDS011;29763;50.904;5.530;2023-04-25T09:26:58;6.85;;;3.30;;
11066;SDS011;29763;50.904;5.530;2023-04-25T09:29:34;10.00;;;4.10;;
11066;SDS011;29763;50.904;5.530;2023-04-25T09:32:11;16.40;;;4.68;;
11066;SDS011;29763;50.904;5.530;2023-04-25T09:34:40;9.57;;;4.07;;
11066;SDS011;29763;50.904;5.530;2023-04-25T09:37:10;5.65;;;2.80;;
11066;SDS011;29763;50.904;5.530;2023-04-25T09:39:37;6.10;;;2.85;;
11066;SDS011;29763;50.904;5.530;2023-04-25T09:42:07;8.07;;;3.45;;
11066;SDS011;29763;50.904;5.530;2023-04-25T09:44:35;11.02;;;4.40;;
11066;SDS011;29763;50.904;5.530;2023-04-25T09:47:01;8.45;;;3.63;;
11066;SDS011;29763;50.904;5.530;2023-04-25T09:49:27;5.60;;;3.05;;
11066;SDS011;29763;50.904;5.530;2023-04-25T09:51:56;7.05;;;2.83;;
11066;SDS011;29763;50.904;5.530;2023-04-25T09:54:25;10.48;;;3.30;;
11066;SDS011;29763;50.904;5.530;2023-04-25T09:56:52;6.88;;;2.83;;
11066;SDS011;29763;50.904;5.530;2023-04-25T09:59:21;7.18;;;3.08;;
11066;SDS011;29763;50.904;5.530;2023-04-25T10:01:48;8.70;;;3.95;;
11066;SDS011;29763;50.904;5.530;2023-04-25T10:04:17;6.90;;;3.25;;
11066;SDS011;29763;50.904;5.530;2023-04-25T10:06:45;7.03;;;2.90;;
11066;SDS011;29763;50.904;5.530;2023-04-25T10:09:15;4.60;;;2.97;;
11066;SDS011;29763;50.904;5.530;2023-04-25T10:11:43;7.18;;;3.10;;
11066;SDS011;29763;50.904;5.530;2023-04-25T10:14:10;6.95;;;3.22;;
11066;SDS011;29763;50.904;5.530;2023-04-25T10:16:38;9.75;;;3.28;;
11066;SDS011;29763;50.904;5.530;2023-04-25T10:19:04;7.82;;;3.15;;
11066;SDS011;29763;50.904;5.530;2023-04-25T10:21:30;9.82;;;3.05;;
11066;SDS011;29763;50.904;5.530;2023-04-25T10:23:57;7.40;;;2.92;;
11066;SDS011;29763;50.904;5.530;2023-04-25T10:26:26;12.35;;;3.25;;
11066;SDS011;29763;50.904;5.530;2023-04-25T10:28:56;5.60;;;2.50;;
11066;SDS011;29763;50.904;5.530;2023-04-25T10:31:24;4.55;;;2.55;;
11066;SDS011;29763;50.904;5.530;2023-04-25T10:33:50;7.55;;;2.80;;
11066;SDS011;29763;50.904;5.530;2023-04-25T10:36:23;5.30;;;2.70;;
11066;SDS011;29763;50.904;5.530;2023-04-25T10:38:51;10.70;;;2.85;;
11066;SDS011;29763;50.904;5.530;2023-04-25T10:41:19;6.43;;;2.78;;
11066;SDS011;29763;50.904;5.530;2023-04-25T10:43:46;6.95;;;2.30;;
11066;SDS011;29763;50.904;5.530;2023-04-25T10:49:01;7.93;;;2.50;;
11066;SDS011;29763;50.904;5.530;2023-04-25T10:51:31;7.53;;;2.45;;
11066;SDS011;29763;50.904;5.530;2023-04-25T10:54:04;6.78;;;2.40;;
11066;SDS011;29763;50.904;5.530;2023-04-25T10:56:31;7.45;;;2.65;;
11066;SDS011;29763;50.904;5.530;2023-04-25T10:59:07;6.18;;;2.20;;
11066;SDS011;29763;50.904;5.530;2023-04-25T11:01:36;6.95;;;2.38;;
11066;SDS011;29763;50.904;5.530;2023-04-25T11:04:04;8.45;;;2.70;;
11066;SDS011;29763;50.904;5.530;2023-04-25T11:09:28;5.45;;;2.13;;
11066;SDS011;29763;50.904;5.530;2023-04-25T11:11:55;3.67;;;1.65;;
11066;SDS011;29763;50.904;5.530;2023-04-25T11:14:22;7.25;;;4.10;;
11066;SDS011;29763;50.904;5.530;2023-04-25T11:16:54;3.28;;;2.03;;
11066;SDS011;29763;50.904;5.530;2023-04-25T11:19:21;5.93;;;2.38;;
11066;SDS011;29763;50.904;5.530;2023-04-25T11:21:48;4.85;;;2.10;;
11066;SDS011;29763;50.904;5.530;2023-04-25T11:24:15;6.57;;;2.47;;
11066;SDS011;29763;50.904;5.530;2023-04-25T11:26:42;6.15;;;2.58;;
11066;SDS011;29763;50.904;5.530;2023-04-25T11:29:11;7.32;;;2.88;;
11066;SDS011;29763;50.904;5.530;2023-04-25T11:31:37;5.85;;;2.85;;
11066;SDS011;29763;50.904;5.530;2023-04-25T11:34:02;5.10;;;2.60;;
11066;SDS011;29763;50.904;5.530;2023-04-25T11:36:28;7.60;;;3.08;;
11066;SDS011;29763;50.904;5.530;2023-04-25T11:38:55;4.63;;;2.22;;
11066;SDS011;29763;50.904;5.530;2023-04-25T11:41:23;4.25;;;2.10;;
11066;SDS011;29763;50.904;5.530;2023-04-25T11:43:51;5.30;;;2.63;;
11066;SDS011;29763;50.904;5.530;2023-04-25T11:46:17;5.78;;;2.50;;
11066;SDS011;29763;50.904;5.530;2023-04-25T11:48:45;5.50;;;2.22;;
11066;SDS011;29763;50.904;5.530;2023-04-25T11:51:11;8.43;;;2.47;;
11066;SDS011;29763;50.904;5.530;2023-04-25T11:53:40;4.57;;;1.90;;
11066;SDS011;29763;50.904;5.530;2023-04-25T11:56:11;4.00;;;2.40;;
11066;SDS011;29763;50.904;5.530;2023-04-25T11:58:56;5.72;;;2.20;;
11066;SDS011;29763;50.904;5.530;2023-04-25T12:01:32;6.82;;;2.40;;
11066;SDS011;29763;50.904;5.530;2023-04-25T12:04:12;6.65;;;2.60;;
11066;SDS011;29763;50.904;5.530;2023-04-25T12:06:40;4.70;;;2.38;;
11066;SDS011;29763;50.904;5.530;2023-04-25T12:09:07;3.03;;;1.75;;
11066;SDS011;29763;50.904;5.530;2023-04-25T12:11:42;5.10;;;2.40;;
11066;SDS011;29763;50.904;5.530;2023-04-25T12:14:12;6.80;;;2.10;;
11066;SDS011;29763;50.904;5.530;2023-04-25T12:16:45;7.00;;;2.50;;
11066;SDS011;29763;50.904;5.530;2023-04-25T12:19:15;3.42;;;1.80;;
11066;SDS011;29763;50.904;5.530;2023-04-25T12:21:42;5.28;;;2.20;;
11066;SDS011;29763;50.904;5.530;2023-04-25T12:24:24;4.20;;;2.20;;
11066;SDS011;29763;50.904;5.530;2023-04-25T12:26:53;3.28;;;1.88;;
11066;SDS011;29763;50.904;5.530;2023-04-25T12:29:26;4.82;;;2.45;;
11066;SDS011;29763;50.904;5.530;2023-04-25T12:31:56;5.90;;;2.50;;
11066;SDS011;29763;50.904;5.530;2023-04-25T12:34:22;6.15;;;2.63;;
11066;SDS011;29763;50.904;5.530;2023-04-25T12:36:49;5.50;;;2.55;;
11066;SDS011;29763;50.904;5.530;2023-04-25T12:39:19;4.53;;;2.10;;
11066;SDS011;29763;50.904;5.530;2023-04-25T12:41:49;4.25;;;2.10;;
11066;SDS011;29763;50.904;5.530;2023-04-25T12:44:15;8.00;;;2.38;;
11066;SDS011;29763;50.904;5.530;2023-04-25T12:46:42;7.43;;;2.60;;
11066;SDS011;29763;50.904;5.530;2023-04-25T12:49:08;6.05;;;2.10;;
11066;SDS011;29763;50.904;5.530;2023-04-25T12:51:37;4.35;;;2.10;;
11066;SDS011;29763;50.904;5.530;2023-04-25T12:54:03;6.45;;;2.40;;
11066;SDS011;29763;50.904;5.530;2023-04-25T12:56:31;4.63;;;2.47;;
11066;SDS011;29763;50.904;5.530;2023-04-25T12:58:57;7.00;;;2.63;;
11066;SDS011;29763;50.904;5.530;2023-04-25T13:01:24;5.38;;;2.22;;
11066;SDS011;29763;50.904;5.530;2023-04-25T13:03:50;4.35;;;2.10;;
11066;SDS011;29763;50.904;5.530;2023-04-25T13:06:16;5.25;;;2.53;;
11066;SDS011;29763;50.904;5.530;2023-04-25T13:08:43;5.43;;;2.72;;
11066;SDS011;29763;50.904;5.530;2023-04-25T13:11:09;3.75;;;2.25;;
11066;SDS011;29763;50.904;5.530;2023-04-25T13:13:36;3.42;;;2.17;;
11066;SDS011;29763;50.904;5.530;2023-04-25T13:16:02;3.40;;;2.10;;
11066;SDS011;29763;50.904;5.530;2023-04-25T13:18:29;5.10;;;2.08;;
11066;SDS011;29763;50.904;5.530;2023-04-25T13:20:56;3.17;;;1.98;;
11066;SDS011;29763;50.904;5.530;2023-04-25T13:23:24;7.60;;;3.13;;
11066;SDS011;29763;50.904;5.530;2023-04-25T13:25:51;5.53;;;3.22;;
11066;SDS011;29763;50.904;5.530;2023-04-25T13:28:17;8.15;;;3.92;;
11066;SDS011;29763;50.904;5.530;2023-04-25T13:30:43;8.32;;;3.63;;
11066;SDS011;29763;50.904;5.530;2023-04-25T13:33:09;4.68;;;2.35;;
11066;SDS011;29763;50.904;5.530;2023-04-25T13:35:35;6.75;;;2.33;;
11066;SDS011;29763;50.904;5.530;2023-04-25T13:38:02;5.30;;;1.95;;
11066;SDS011;29763;50.904;5.530;2023-04-25T13:40:28;4.72;;;2.40;;
11066;SDS011;29763;50.904;5.530;2023-04-25T13:42:54;4.75;;;2.20;;
11066;SDS011;29763;50.904;5.530;2023-04-25T13:45:21;5.75;;;2.90;;
11066;SDS011;29763;50.904;5.530;2023-04-25T13:47:47;6.68;;;2.42;;
11066;SDS011;29763;50.904;5.530;2023-04-25T13:50:13;4.53;;;2.28;;
11066;SDS011;29763;50.904;5.530;2023-04-25T13:52:39;7.65;;;2.40;;
11066;SDS011;29763;50.904;5.530;2023-04-25T13:55:05;4.35;;;2.20;;
11066;SDS011;29763;50.904;5.530;2023-04-25T13:57:35;3.55;;;2.28;;
11066;SDS011;29763;50.904;5.530;2023-04-25T14:00:01;5.47;;;2.33;;
11066;SDS011;29763;50.904;5.530;2023-04-25T14:02:37;6.13;;;2.15;;
11066;SDS011;29763;50.904;5.530;2023-04-25T14:05:03;6.82;;;2.03;;
11066;SDS011;29763;50.904;5.530;2023-04-25T14:07:30;5.95;;;1.98;;
11066;SDS011;29763;50.904;5.530;2023-04-25T14:09:56;3.13;;;1.67;;
11066;SDS011;29763;50.904;5.530;2023-04-25T14:12:25;3.22;;;1.88;;
11066;SDS011;29763;50.904;5.530;2023-04-25T14:14:51;5.88;;;2.10;;
11066;SDS011;29763;50.904;5.530;2023-04-25T14:17:18;4.47;;;2.05;;
11066;SDS011;29763;50.904;5.530;2023-04-25T14:19:44;4.40;;;2.03;;
11066;SDS011;29763;50.904;5.530;2023-04-25T14:22:12;4.40;;;1.92;;
11066;SDS011;29763;50.904;5.530;2023-04-25T14:24:39;4.15;;;2.33;;
11066;SDS011;29763;50.904;5.530;2023-04-25T14:27:05;8.65;;;2.70;;
11066;SDS011;29763;50.904;5.530;2023-04-25T14:29:31;8.48;;;2.40;;
11066;SDS011;29763;50.904;5.530;2023-04-25T14:31:57;3.67;;;2.05;;
11066;SDS011;29763;50.904;5.530;2023-04-25T14:34:24;5.57;;;1.92;;
11066;SDS011;29763;50.904;5.530;2023-04-25T14:36:50;3.42;;;1.60;;
11066;SDS011;29763;50.904;5.530;2023-04-25T14:39:17;3.42;;;1.80;;
11066;SDS011;29763;50.904;5.530;2023-04-25T14:41:43;5.13;;;2.15;;
11066;SDS011;29763;50.904;5.530;2023-04-25T14:44:09;4.25;;;2.00;;
11066;SDS011;29763;50.904;5.530;2023-04-25T14:46:35;4.60;;;1.90;;
11066;SDS011;29763;50.904;5.530;2023-04-25T14:49:01;4.68;;;1.70;;
11066;SDS011;29763;50.904;5.530;2023-04-25T14:51:28;4.07;;;1.70;;
11066;SDS011;29763;50.904;5.530;2023-04-25T14:53:54;4.88;;;1.90;;
11066;SDS011;29763;50.904;5.530;2023-04-25T14:56:20;3.95;;;1.67;;
11066;SDS011;29763;50.904;5.530;2023-04-25T14:58:46;4.65;;;1.90;;
11066;SDS011;29763;50.904;5.530;2023-04-25T15:01:12;4.30;;;1.80;;
11066;SDS011;29763;50.904;5.530;2023-04-25T15:03:39;4.85;;;1.85;;